Time;durP1;ratioP1;P1;durP2;ratioP2;P2;SDS_P1;SDS_P2;PMS_P1;PMS_P2;Temp;Humidity;BMP_temperature;BMP_pressure;BME280_temperature;BME280_humidity;BME280_pressure;Samples;Min_cycle;Max_cycle;Signal;HPM_P1;HPM_P2
2022/05/30 00:00:28;;;;;;;;;;;;;;;4.42;100.00;95289.81;1034956;28;19912;-70
2022/05/30 00:01:18;;;;;;;;;;;;;;;4.44;100.00;95285.19;1034917;28;20232;-70
2022/05/30 00:01:49;;;;;;;;;;;;;;;4.45;100.00;95291.94;1030449;28;19913;-70
2022/05/30 00:02:19;;;;;;;;;;;;;;;4.43;100.00;95291.41;1033605;28;19913;-72
2022/05/30 00:02:49;;;;;;;;;;;;;;;4.55;100.00;95295.72;1034916;28;19983;-70
2022/05/30 00:03:20;;;;;;;;;;;;;;;4.61;100.00;95290.38;1036712;28;19905;-72
2022/05/30 00:03:50;;;;;;;;;;;;;;;4.65;100.00;95288.09;1038897;28;19972;-72
2022/05/30 00:04:21;;;;;;;;;;;;;;;4.72;100.00;95291.31;1034850;28;19913;-70
2022/05/30 00:04:51;;;;;;;;;;;;;;;4.75;100.00;95284.88;1034706;28;19914;-71
2022/05/30 00:05:21;;;;;;;;;;;;;;;4.74;100.00;95294.50;1034970;28;19910;-72
2022/05/30 00:05:53;;;;;;;;;;;;;;;4.76;100.00;95295.03;1034903;28;19910;-73
2022/05/30 00:06:23;;;;;;;;;;;;;;;4.84;100.00;95293.88;1043143;28;19942;-70
2022/05/30 00:06:54;;;;;;;;;;;;;;;4.81;100.00;95299.53;1035294;28;19910;-70
2022/05/30 00:07:24;;;;;;;;;;;;;;;4.72;100.00;95291.31;1034936;28;20407;-73
2022/05/30 00:07:56;;;;;;;;;;;;;;;4.75;100.00;95295.28;1035541;28;19925;-69
2022/05/30 00:08:26;;;;;;;;;;;;;;;4.69;100.00;95294.41;1037963;28;20425;-71
2022/05/30 00:08:57;;;;;;;;;;;;;;;4.67;100.00;95296.47;1043919;28;19960;-71
2022/05/30 00:09:27;;;;;;;;;;;;;;;4.67;100.00;95294.66;1043857;28;19935;-71
2022/05/30 00:09:57;;;;;;;;;;;;;;;4.67;100.00;95301.66;1034179;28;19915;-70
2022/05/30 00:10:28;;;;;;;;;;;;;;;4.62;100.00;95291.16;1031668;28;19956;-70
2022/05/30 00:11:00;;;;;;;;;;;;;;;4.60;100.00;95294.00;1033955;28;19914;-70
2022/05/30 00:11:34;;;;;;;;;;;;;;;4.57;100.00;95293.69;1036160;28;19921;-72
2022/05/30 00:12:04;;;;;;;;;;;;;;;4.57;100.00;95291.09;1042990;28;19929;-70
2022/05/30 00:12:35;;;;;;;;;;;;;;;4.55;100.00;95293.13;1043898;28;20000;-69
2022/05/30 00:13:06;;;;;;;;;;;;;;;4.52;100.00;95283.22;1039926;28;19910;-71
2022/05/30 00:13:36;;;;;;;;;;;;;;;4.48;100.00;95286.28;1032876;28;19937;-71
2022/05/30 00:14:09;;;;;;;;;;;;;;;4.48;100.00;95286.28;1027640;28;19937;-70
2022/05/30 00:14:39;;;;;;;;;;;;;;;4.61;100.00;95287.00;1028070;28;20213;-70
2022/05/30 00:15:10;;;;;;;;;;;;;;;4.72;100.00;95292.09;1033493;28;21015;-71
2022/05/30 00:15:41;;;;;;;;;;;;;;;4.71;100.00;95289.75;1040325;28;19916;-70
2022/05/30 00:16:12;;;;;;;;;;;;;;;4.69;100.00;95287.41;1039511;28;19909;-70
2022/05/30 00:16:42;;;;;;;;;;;;;;;4.65;100.00;95285.50;1035724;28;19905;-69
2022/05/30 00:17:12;;;;;;;;;;;;;;;4.60;100.00;95288.81;1035735;28;19914;-70
2022/05/30 00:17:43;;;;;;;;;;;;;;;4.58;100.00;95292.66;1031592;28;20392;-71
2022/05/30 00:18:13;;;;;;;;;;;;;;;4.57;100.00;95294.47;1031560;28;20457;-70
2022/05/30 00:18:44;;;;;;;;;;;;;;;4.57;100.00;95293.69;1031383;28;19965;-70
2022/05/30 00:19:14;;;;;;;;;;;;;;;4.58;100.00;95290.06;1027678;28;19910;-72
2022/05/30 00:19:47;;;;;;;;;;;;;;;4.59;100.00;95291.63;1030956;28;20438;-71
2022/05/30 00:20:17;;;;;;;;;;;;;;;4.60;100.00;95294.00;1031579;28;20415;-70
2022/05/30 00:20:49;;;;;;;;;;;;;;;4.60;100.00;95288.81;1036130;28;19936;-72
2022/05/30 00:21:20;;;;;;;;;;;;;;;4.56;100.00;95292.91;1039797;28;19975;-72
2022/05/30 00:21:50;;;;;;;;;;;;;;;4.63;100.00;95284.97;1035930;28;20822;-71
2022/05/30 00:22:20;;;;;;;;;;;;;;;4.70;100.00;95293.38;1035588;28;19972;-71
2022/05/30 00:22:51;;;;;;;;;;;;;;;4.71;100.00;95290.53;1035739;28;19914;-71
2022/05/30 00:23:21;;;;;;;;;;;;;;;4.80;100.00;95290.94;1035875;28;19905;-70
2022/05/30 00:23:54;;;;;;;;;;;;;;;4.81;100.00;95284.72;1039680;28;19943;-71
2022/05/30 00:24:25;;;;;;;;;;;;;;;4.83;100.00;95287.06;1043700;28;19913;-70
2022/05/30 00:24:55;;;;;;;;;;;;;;;4.76;100.00;95287.22;1043438;28;20379;-70
2022/05/30 00:25:25;;;;;;;;;;;;;;;4.75;100.00;95280.47;1040103;28;19905;-72
2022/05/30 00:25:56;;;;;;;;;;;;;;;4.76;100.00;95287.22;1037795;28;20382;-70
2022/05/30 00:26:26;;;;;;;;;;;;;;;4.76;100.00;95283.84;1035850;28;19920;-72
2022/05/30 00:26:57;;;;;;;;;;;;;;;4.76;100.00;95282.03;1035989;28;19918;-69
2022/05/30 00:27:27;;;;;;;;;;;;;;;4.73;100.00;95285.13;1040382;28;19901;-70
2022/05/30 00:27:57;;;;;;;;;;;;;;;4.71;100.00;95284.56;1039672;28;20436;-71
2022/05/30 00:28:28;;;;;;;;;;;;;;;4.71;100.00;95284.56;1039622;28;19913;-71
2022/05/30 00:29:01;;;;;;;;;;;;;;;4.68;100.00;95285.03;1039697;28;19905;-72
2022/05/30 00:29:32;;;;;;;;;;;;;;;4.68;100.00;95282.44;1035741;28;19917;-69
2022/05/30 00:30:02;;;;;;;;;;;;;;;4.65;100.00;95275.91;1035162;28;19920;-72
2022/05/30 00:30:33;;;;;;;;;;;;;;;4.64;100.00;95281.34;1039574;28;19912;-71
2022/05/30 00:31:03;;;;;;;;;;;;;;;4.62;100.00;95275.56;1041074;28;19916;-71
2022/05/30 00:31:35;;;;;;;;;;;;;;;4.62;100.00;95285.97;1043826;28;19909;-72
2022/05/30 00:32:09;;;;;;;;;;;;;;;4.58;100.00;95279.69;1039759;28;19913;-70
2022/05/30 00:32:39;;;;;;;;;;;;;;;4.60;100.00;95281.03;1039432;28;19909;-71
2022/05/30 00:33:09;;;;;;;;;;;;;;;4.60;100.00;95283.63;1039849;28;19906;-72
2022/05/30 00:33:40;;;;;;;;;;;;;;;4.58;100.00;95274.47;1039766;28;20416;-70
2022/05/30 00:34:10;;;;;;;;;;;;;;;4.56;100.00;95277.31;1035526;28;19972;-70
2022/05/30 00:34:41;;;;;;;;;;;;;;;4.55;100.00;95277.53;1031503;28;19957;-71
2022/05/30 00:35:11;;;;;;;;;;;;;;;4.55;100.00;95272.34;1031761;28;20384;-71
2022/05/30 00:35:42;;;;;;;;;;;;;;;4.45;100.00;95265.97;1031739;28;20070;-69
2022/05/30 00:36:12;;;;;;;;;;;;;;;4.42;100.00;95266.44;1038277;28;19925;-73
2022/05/30 00:36:43;;;;;;;;;;;;;;;4.45;100.00;95265.19;1035544;28;19917;-68
2022/05/30 00:37:14;;;;;;;;;;;;;;;4.46;100.00;95272.75;1031647;28;20335;-70
2022/05/30 00:37:44;;;;;;;;;;;;;;;4.46;100.00;95264.97;1035567;28;19913;-72
2022/05/30 00:38:14;;;;;;;;;;;;;;;4.44;100.00;95268.81;1031705;28;19917;-70
2022/05/30 00:38:44;;;;;;;;;;;;;;;4.44;100.00;95264.41;1035704;28;19913;-72
2022/05/30 00:39:15;;;;;;;;;;;;;;;4.43;100.00;95268.03;1035641;28;19917;-71
2022/05/30 00:39:45;;;;;;;;;;;;;;;4.42;100.00;95263.84;1038209;28;19920;-70
2022/05/30 00:40:16;;;;;;;;;;;;;;;4.43;100.00;95265.44;1043703;28;19909;-70
2022/05/30 00:40:46;;;;;;;;;;;;;;;4.44;100.00;95263.63;1039788;28;19916;-71
2022/05/30 00:41:16;;;;;;;;;;;;;;;4.42;100.00;95261.22;1039341;28;19916;-70
2022/05/30 00:41:47;;;;;;;;;;;;;;;4.40;100.00;95263.31;1027673;28;19989;-72
2022/05/30 00:42:18;;;;;;;;;;;;;;;4.36;100.00;95262.19;1023543;28;19914;-71
2022/05/30 00:42:48;;;;;;;;;;;;;;;4.35;100.00;95254.63;1027616;28;19915;-71
2022/05/30 00:43:19;;;;;;;;;;;;;;;4.35;100.00;95257.22;1023704;28;19949;-69
2022/05/30 00:43:49;;;;;;;;;;;;;;;4.35;100.00;95259.81;1031895;28;19913;-69
2022/05/30 00:44:19;;;;;;;;;;;;;;;4.27;100.00;95263.59;1035661;28;19913;-71
2022/05/30 00:44:50;;;;;;;;;;;;;;;4.23;100.00;95252.91;1039394;28;20142;-70
2022/05/30 00:45:20;;;;;;;;;;;;;;;4.27;100.00;95252.44;1039886;28;20004;-70
2022/05/30 00:45:50;;;;;;;;;;;;;;;4.26;100.00;95256.84;1039981;28;19932;-70
2022/05/30 00:46:21;;;;;;;;;;;;;;;4.20;100.00;95253.34;1043781;28;20410;-68
2022/05/30 00:46:51;;;;;;;;;;;;;;;4.19;100.00;95254.38;1035491;28;19909;-71
2022/05/30 00:47:25;;;;;;;;;;;;;;;4.21;100.00;95254.16;1035573;28;20510;-70
2022/05/30 00:47:55;;;;;;;;;;;;;;;4.23;100.00;95257.31;1035407;28;20664;-70
2022/05/30 00:48:30;;;;;;;;;;;;;;;4.25;100.00;95260.44;1036696;28;19913;-70
2022/05/30 00:49:01;;;;;;;;;;;;;;;4.20;100.00;95263.75;1043747;28;19909;-70
2022/05/30 00:49:31;;;;;;;;;;;;;;;4.21;100.00;95254.16;1043311;28;20010;-70
2022/05/30 00:50:02;;;;;;;;;;;;;;;4.15;100.00;95248.06;1039057;28;19913;-69
2022/05/30 00:50:32;;;;;;;;;;;;;;;4.17;100.00;95258.22;1035538;28;20287;-69
2022/05/30 00:51:04;;;;;;;;;;;;;;;4.15;100.00;95244.69;1031604;28;19961;-71
2022/05/30 00:51:41;;;;;;;;;;;;;;;4.16;100.00;95254.84;1029816;28;19921;-74
2022/05/30 00:52:20;;;;;;;;;;;;;;;4.13;100.00;95247.53;1032720;28;19920;-69
2022/05/30 00:52:50;;;;;;;;;;;;;;;4.08;100.00;95254.44;1035594;28;20039;-70
2022/05/30 00:53:20;;;;;;;;;;;;;;;3.97;100.00;95237.91;1035183;28;19966;-72
2022/05/30 00:53:54;;;;;;;;;;;;;;;4.07;100.00;95252.88;1028357;28;19915;-70
2022/05/30 00:54:26;;;;;;;;;;;;;;;3.98;100.00;95258.41;1027527;28;19914;-73
2022/05/30 00:54:58;;;;;;;;;;;;;;;3.98;100.00;95255.81;1027375;28;19952;-70
2022/05/30 00:55:30;;;;;;;;;;;;;;;3.97;100.00;95259.44;1029548;28;19902;-69
2022/05/30 00:56:04;;;;;;;;;;;;;;;3.97;100.00;95256.06;1032163;28;19906;-69
2022/05/30 00:56:36;;;;;;;;;;;;;;;3.95;100.00;95253.69;1032288;28;19906;-69
2022/05/30 00:57:20;;;;;;;;;;;;;;;4.00;100.00;95248.59;1035647;28;19961;-70
2022/05/30 00:57:50;;;;;;;;;;;;;;;4.05;100.00;95250.50;1038269;28;20618;-70
2022/05/30 00:58:20;;;;;;;;;;;;;;;4.08;100.00;95254.44;1027320;28;19917;-71
2022/05/30 00:58:51;;;;;;;;;;;;;;;4.09;100.00;95248.22;1027602;28;20410;-72
2022/05/30 00:59:21;;;;;;;;;;;;;;;4.05;100.00;95245.28;1023534;28;19911;-71
2022/05/30 00:59:55;;;;;;;;;;;;;;;4.00;100.00;95243.41;1026448;28;20562;-69
2022/05/30 01:00:26;;;;;;;;;;;;;;;4.01;100.00;95250.16;1031547;28;19961;-69
2022/05/30 01:00:56;;;;;;;;;;;;;;;4.00;100.00;95251.19;1032030;28;20031;-71
2022/05/30 01:01:28;;;;;;;;;;;;;;;3.98;100.00;95245.44;1036098;28;20418;-73
2022/05/30 01:01:58;;;;;;;;;;;;;;;3.96;100.00;95249.31;1035426;28;19912;-71
2022/05/30 01:02:30;;;;;;;;;;;;;;;3.99;100.00;95246.22;1035643;28;19982;-72
2022/05/30 01:06:32;;;;;;;;;;;;;;;4.06;100.00;95243.47;1036475;28;19920;-72
2022/05/30 01:07:04;;;;;;;;;;;;;;;4.01;100.00;95233.81;1039623;28;19934;-71
2022/05/30 01:07:35;;;;;;;;;;;;;;;4.00;100.00;95238.22;1035446;28;19945;-71
2022/05/30 01:08:05;;;;;;;;;;;;;;;4.04;100.00;95242.94;1035445;28;20307;-70
2022/05/30 01:08:36;;;;;;;;;;;;;;;4.05;100.00;95234.13;1038770;28;20326;-69
2022/05/30 01:09:11;;;;;;;;;;;;;;;3.98;100.00;95240.25;1035519;28;19915;-71
2022/05/30 01:09:42;;;;;;;;;;;;;;;4.04;100.00;95241.13;1035632;28;19959;-70
2022/05/30 01:10:14;;;;;;;;;;;;;;;4.00;100.00;95242.63;1038474;28;19944;-70
2022/05/30 01:10:44;;;;;;;;;;;;;;;4.01;100.00;95244.97;1034898;28;20441;-71
2022/05/30 01:11:14;;;;;;;;;;;;;;;4.00;100.00;95243.41;1035697;28;19956;-71
2022/05/30 01:12:01;;;;;;;;;;;;;;;3.97;100.00;95243.09;1038047;28;19905;-71
2022/05/30 01:12:36;;;;;;;;;;;;;;;3.97;100.00;95246.47;1033495;28;19910;-72
2022/05/30 01:13:07;;;;;;;;;;;;;;;3.94;100.00;95249.53;1034266;28;20314;-69
2022/05/30 01:13:37;;;;;;;;;;;;;;;3.94;100.00;95249.53;1031152;28;19914;-72
2022/05/30 01:14:08;;;;;;;;;;;;;;;3.92;100.00;95246.41;1032136;28;19917;-69
2022/05/30 01:14:39;;;;;;;;;;;;;;;3.90;100.00;95247.63;1035510;28;20422;-69
2022/05/30 01:15:13;;;;;;;;;;;;;;;3.88;100.00;95244.47;1035898;28;19906;-70
2022/05/30 01:15:44;;;;;;;;;;;;;;;3.92;100.00;95246.41;1039590;28;19916;-69
2022/05/30 01:16:14;;;;;;;;;;;;;;;3.88;100.00;95245.25;1039425;28;19932;-71
2022/05/30 01:16:44;;;;;;;;;;;;;;;3.92;100.00;95243.00;1034675;28;19921;-71
2022/05/30 01:17:15;;;;;;;;;;;;;;;3.90;100.00;95243.22;1031476;28;19906;-70
2022/05/30 01:17:55;;;;;;;;;;;;;;;3.96;100.00;95236.34;1035394;28;19906;-72
2022/05/30 01:18:25;;;;;;;;;;;;;;;4.00;100.00;95242.63;1034396;28;19906;-72
2022/05/30 01:18:56;;;;;;;;;;;;;;;4.05;100.00;95240.09;1032718;28;19917;-70
2022/05/30 01:19:46;;;;;;;;;;;;;;;4.07;100.00;95237.28;1028629;28;19957;-71
2022/05/30 01:20:22;;;;;;;;;;;;;;;4.12;100.00;95239.97;1024602;28;19907;-72
2022/05/30 01:20:56;;;;;;;;;;;;;;;4.14;100.00;95238.72;1027314;28;19910;-70
2022/05/30 01:21:38;;;;;;;;;;;;;;;4.19;100.00;95236.22;1035123;28;19917;-71
2022/05/30 01:22:22;;;;;;;;;;;;;;;4.19;100.00;95233.63;1038144;28;20615;-70
2022/05/30 01:23:06;;;;;;;;;;;;;;;4.17;100.00;95232.28;1031265;28;19909;-72
2022/05/30 01:23:46;;;;;;;;;;;;;;;4.19;100.00;95236.22;1032364;28;19941;-71
2022/05/30 01:24:25;;;;;;;;;;;;;;;4.17;100.00;95230.47;1035351;28;19989;-70
2022/05/30 01:24:58;;;;;;;;;;;;;;;4.15;100.00;95236.91;1039369;28;20367;-70
2022/05/30 01:25:35;;;;;;;;;;;;;;;4.14;100.00;95235.34;1039668;28;19996;-71
2022/05/30 01:26:14;;;;;;;;;;;;;;;4.13;100.00;95231.94;1035141;28;19916;-72
2022/05/30 01:27:06;;;;;;;;;;;;;;;4.07;100.00;95227.69;1033538;28;19916;-72
2022/05/30 01:27:55;;;;;;;;;;;;;;;4.06;100.00;95231.31;1027094;28;20480;-71
2022/05/30 01:28:43;;;;;;;;;;;;;;;4.08;100.00;95231.06;1032707;28;19909;-72
2022/05/30 01:29:25;;;;;;;;;;;;;;;4.06;100.00;95233.91;1031813;28;19906;-71
2022/05/30 01:29:59;;;;;;;;;;;;;;;4.07;100.00;95232.88;1034550;28;19909;-70
2022/05/30 01:30:29;;;;;;;;;;;;;;;4.07;100.00;95234.69;1031382;28;19905;-71
2022/05/30 01:31:03;;;;;;;;;;;;;;;4.08;100.00;95234.44;1027476;28;19910;-71
2022/05/30 01:31:33;;;;;;;;;;;;;;;4.06;100.00;95233.91;1031272;28;20387;-72
2022/05/30 01:32:03;;;;;;;;;;;;;;;4.04;100.00;95233.34;1027394;28;19929;-73
2022/05/30 01:32:34;;;;;;;;;;;;;;;4.05;100.00;95234.91;1027923;28;19922;-70
2022/05/30 01:33:04;;;;;;;;;;;;;;;4.04;100.00;95233.34;1035303;28;19909;-72
2022/05/30 01:33:34;;;;;;;;;;;;;;;4.04;100.00;95235.16;1031327;28;20299;-71
2022/05/30 01:34:05;;;;;;;;;;;;;;;4.04;100.00;95232.56;1035459;28;20013;-71
2022/05/30 01:34:35;;;;;;;;;;;;;;;4.03;100.00;95234.38;1035182;28;19917;-72
2022/05/30 01:35:05;;;;;;;;;;;;;;;4.04;100.00;95229.97;1039450;28;19935;-70
2022/05/30 01:35:36;;;;;;;;;;;;;;;4.03;100.00;95231.78;1039582;28;19909;-72
2022/05/30 01:36:06;;;;;;;;;;;;;;;4.02;100.00;95235.38;1039401;28;19909;-70
2022/05/30 01:36:37;;;;;;;;;;;;;;;4.04;100.00;95232.56;1035432;28;19964;-69
2022/05/30 01:37:07;;;;;;;;;;;;;;;4.04;100.00;95232.56;1031214;28;19993;-73
2022/05/30 01:37:38;;;;;;;;;;;;;;;4.04;100.00;95233.34;1022597;29;19915;-72
2022/05/30 01:38:08;;;;;;;;;;;;;;;4.03;100.00;95231.00;1019643;29;20013;-72
2022/05/30 01:38:39;;;;;;;;;;;;;;;3.99;100.00;95231.47;1023314;28;19949;-71
2022/05/30 01:39:09;;;;;;;;;;;;;;;3.99;100.00;95236.66;1031485;28;20013;-71
2022/05/30 01:39:39;;;;;;;;;;;;;;;3.96;100.00;95231.94;1037686;28;19917;-70
2022/05/30 01:40:10;;;;;;;;;;;;;;;3.96;100.00;95226.72;1039410;28;19909;-71
2022/05/30 01:40:40;;;;;;;;;;;;;;;3.94;100.00;95231.34;1035398;28;19940;-70
2022/05/30 01:41:13;;;;;;;;;;;;;;;3.93;100.00;95227.19;1031112;28;19973;-72
2022/05/30 01:41:43;;;;;;;;;;;;;;;3.92;100.00;95230.00;1031766;28;19910;-71
2022/05/30 01:42:15;;;;;;;;;;;;;;;3.92;100.00;95230.81;1031249;28;19913;-71
2022/05/30 01:42:45;;;;;;;;;;;;;;;3.91;100.00;95223.25;1028302;28;19914;-71
2022/05/30 01:43:16;;;;;;;;;;;;;;;3.92;100.00;95230.81;1027254;28;19938;-69
2022/05/30 01:43:46;;;;;;;;;;;;;;;3.91;100.00;95218.06;1023401;28;19973;-71
2022/05/30 01:44:16;;;;;;;;;;;;;;;3.91;100.00;95224.03;1023281;29;19910;-70
2022/05/30 01:44:47;;;;;;;;;;;;;;;3.90;100.00;95222.47;1023206;28;19922;-71
2022/05/30 01:45:18;;;;;;;;;;;;;;;3.91;100.00;95221.44;1031385;28;19909;-70
2022/05/30 01:45:48;;;;;;;;;;;;;;;3.91;100.00;95223.25;1031361;28;19914;-71
2022/05/30 01:46:21;;;;;;;;;;;;;;;3.89;100.00;95225.28;1039340;28;19909;-70
2022/05/30 01:46:51;;;;;;;;;;;;;;;3.90;100.00;95222.47;1039370;28;20390;-69
2022/05/30 01:47:22;;;;;;;;;;;;;;;3.91;100.00;95223.25;1039537;28;19916;-69
2022/05/30 01:47:52;;;;;;;;;;;;;;;3.88;100.00;95227.09;1038664;28;19983;-73
2022/05/30 01:48:23;;;;;;;;;;;;;;;3.88;100.00;95229.69;1039527;28;19917;-70
2022/05/30 01:48:53;;;;;;;;;;;;;;;3.89;100.00;95223.50;1039413;28;19909;-72
2022/05/30 01:49:24;;;;;;;;;;;;;;;3.89;100.00;95223.50;1039478;28;19917;-70
2022/05/30 01:49:54;;;;;;;;;;;;;;;3.87;100.00;95222.94;1038250;28;20449;-71
2022/05/30 01:50:24;;;;;;;;;;;;;;;3.86;100.00;95221.38;1035418;28;19909;-70
2022/05/30 01:50:57;;;;;;;;;;;;;;;3.85;100.00;95222.38;1035283;28;20327;-72
2022/05/30 01:51:27;;;;;;;;;;;;;;;3.83;100.00;95221.81;1033710;28;19909;-70
2022/05/30 01:51:58;;;;;;;;;;;;;;;3.81;100.00;95228.25;1034892;28;19910;-71
2022/05/30 01:52:28;;;;;;;;;;;;;;;3.78;100.00;95219.13;1035460;28;20391;-69
2022/05/30 01:52:59;;;;;;;;;;;;;;;3.77;100.00;95222.75;1036036;28;20574;-71
2022/05/30 01:53:29;;;;;;;;;;;;;;;3.77;100.00;95225.34;1040048;28;20283;-72
2022/05/30 01:54:00;;;;;;;;;;;;;;;3.76;100.00;95221.19;1042076;28;19951;-71
2022/05/30 01:54:30;;;;;;;;;;;;;;;3.76;100.00;95224.56;1043952;28;19970;-69
2022/05/30 01:55:00;;;;;;;;;;;;;;;3.77;100.00;95230.53;1039776;28;19952;-68
2022/05/30 01:55:31;;;;;;;;;;;;;;;3.76;100.00;95221.19;1031830;28;19910;-70
2022/05/30 01:56:04;;;;;;;;;;;;;;;3.76;100.00;95226.38;1031417;28;19952;-70
2022/05/30 01:56:34;;;;;;;;;;;;;;;3.76;100.00;95228.97;1034021;28;19920;-71
2022/05/30 01:57:05;;;;;;;;;;;;;;;3.75;100.00;95225.56;1039271;28;19952;-71
2022/05/30 01:57:35;;;;;;;;;;;;;;;3.76;100.00;95226.38;1035550;28;19941;-70
2022/05/30 01:58:06;;;;;;;;;;;;;;;3.74;100.00;95228.41;1036552;28;19975;-69
2022/05/30 01:58:36;;;;;;;;;;;;;;;3.74;100.00;95223.22;1040007;28;19921;-71
2022/05/30 01:59:07;;;;;;;;;;;;;;;3.75;100.00;95227.38;1044093;28;19994;-71
2022/05/30 01:59:37;;;;;;;;;;;;;;;3.73;100.00;95226.84;1043349;28;19920;-70
2022/05/30 02:00:08;;;;;;;;;;;;;;;3.67;100.00;95225.94;1035402;28;19949;-70
2022/05/30 02:00:38;;;;;;;;;;;;;;;3.64;100.00;95223.03;1031658;28;19925;-71
2022/05/30 02:01:19;;;;;;;;;;;;;;;3.65;100.00;95224.59;1031842;28;19920;-70
2022/05/30 02:01:49;;;;;;;;;;;;;;;3.66;100.00;95231.38;1029208;28;19914;-70
2022/05/30 02:02:19;;;;;;;;;;;;;;;3.67;100.00;95225.94;1030261;28;19954;-71
2022/05/30 02:02:50;;;;;;;;;;;;;;;3.67;100.00;95230.34;1035883;28;20378;-69
2022/05/30 02:03:20;;;;;;;;;;;;;;;3.66;100.00;95232.16;1031630;28;19968;-70
2022/05/30 02:03:51;;;;;;;;;;;;;;;3.68;100.00;95222.31;1031733;28;20000;-71
2022/05/30 02:04:22;;;;;;;;;;;;;;;3.67;100.00;95233.72;1031596;28;20407;-70
2022/05/30 02:04:53;;;;;;;;;;;;;;;3.66;100.00;95224.38;1027717;28;19918;-69
2022/05/30 02:05:23;;;;;;;;;;;;;;;3.67;100.00;95230.34;1027772;28;19921;-70
2022/05/30 02:05:53;;;;;;;;;;;;;;;3.69;100.00;95225.69;1027737;28;19968;-70
2022/05/30 02:06:24;;;;;;;;;;;;;;;3.70;100.00;95224.69;1031786;28;20388;-69
2022/05/30 02:06:54;;;;;;;;;;;;;;;3.70;100.00;95224.69;1035698;28;19924;-69
2022/05/30 02:07:24;;;;;;;;;;;;;;;3.71;100.00;95218.50;1040069;28;19967;-70
2022/05/30 02:07:56;;;;;;;;;;;;;;;3.71;100.00;95219.28;1039776;28;19967;-68
2022/05/30 02:08:26;;;;;;;;;;;;;;;3.74;100.00;95226.59;1035455;28;20338;-70
2022/05/30 02:08:56;;;;;;;;;;;;;;;3.73;100.00;95216.47;1035708;28;19955;-70
2022/05/30 02:09:27;;;;;;;;;;;;;;;3.75;100.00;95224.78;1031624;28;19922;-70
2022/05/30 02:09:57;;;;;;;;;;;;;;;3.75;100.00;95224.78;1030958;28;19920;-71
2022/05/30 02:10:29;;;;;;;;;;;;;;;3.75;100.00;95224.78;1035808;28;20446;-72
2022/05/30 02:10:59;;;;;;;;;;;;;;;3.73;100.00;95221.66;1039798;28;19913;-70
2022/05/30 02:11:29;;;;;;;;;;;;;;;3.72;100.00;95214.88;1031728;28;19909;-69
2022/05/30 02:11:59;;;;;;;;;;;;;;;3.72;100.00;95226.06;1031468;28;19964;-70
2022/05/30 02:12:30;;;;;;;;;;;;;;;3.73;100.00;95219.84;1031616;28;19999;-70
2022/05/30 02:13:00;;;;;;;;;;;;;;;3.70;100.00;95222.88;1031767;28;19921;-69
2022/05/30 02:13:31;;;;;;;;;;;;;;;3.70;100.00;95222.09;1033335;28;20001;-73
2022/05/30 02:14:01;;;;;;;;;;;;;;;3.72;100.00;95222.66;1039970;28;19924;-69
2022/05/30 02:14:31;;;;;;;;;;;;;;;3.70;100.00;95220.28;1036033;28;19922;-70
2022/05/30 02:15:02;;;;;;;;;;;;;;;3.68;100.00;95219.72;1040057;28;19920;-71
2022/05/30 02:17:00;;;;;;;;;;;;;;;3.68;100.00;95221.53;1039913;28;20364;-69
2022/05/30 02:17:11;;;;;;;;;;;;;;;3.63;100.00;95211.88;1035612;28;19928;-68
2022/05/30 02:17:41;;;;;;;;;;;;;;;3.60;100.00;95222.69;1031749;28;19949;-71
2022/05/30 02:18:12;;;;;;;;;;;;;;;3.61;100.00;95224.28;1031694;28;19957;-69
2022/05/30 02:18:42;;;;;;;;;;;;;;;3.65;100.00;95216.81;1032589;28;19961;-71
2022/05/30 02:19:12;;;;;;;;;;;;;;;3.65;100.00;95216.81;1035608;28;19929;-71
2022/05/30 02:19:47;;;;;;;;;;;;;;;3.62;100.00;95217.28;1035226;28;19921;-70
2022/05/30 02:20:17;;;;;;;;;;;;;;;3.63;100.00;95219.66;1031887;28;19925;-71
2022/05/30 02:20:47;;;;;;;;;;;;;;;3.64;100.00;95223.81;1031730;28;20017;-70
2022/05/30 02:21:18;;;;;;;;;;;;;;;3.63;100.00;95218.88;1027618;28;19914;-68
2022/05/30 02:21:48;;;;;;;;;;;;;;;3.58;100.00;95224.72;1027639;28;19965;-69
2022/05/30 02:22:19;;;;;;;;;;;;;;;3.59;100.00;95217.72;1031707;28;19968;-71
2022/05/30 02:22:49;;;;;;;;;;;;;;;3.59;100.00;95217.72;1031813;28;19964;-69
2022/05/30 02:23:20;;;;;;;;;;;;;;;3.59;100.00;95217.72;1031686;28;19961;-71
2022/05/30 02:23:50;;;;;;;;;;;;;;;3.61;100.00;95213.91;1035715;28;19922;-70
2022/05/30 02:24:21;;;;;;;;;;;;;;;3.62;100.00;95215.50;1035653;28;20414;-70
2022/05/30 02:24:51;;;;;;;;;;;;;;;3.66;100.00;95223.59;1039793;28;19917;-70
2022/05/30 02:25:22;;;;;;;;;;;;;;;3.66;100.00;95221.78;1039767;28;20458;-70
2022/05/30 02:25:52;;;;;;;;;;;;;;;3.65;100.00;95219.41;1038044;28;19921;-70
2022/05/30 02:26:22;;;;;;;;;;;;;;;3.66;100.00;95215.81;1031775;28;19922;-72
2022/05/30 02:26:52;;;;;;;;;;;;;;;3.67;100.00;95222.56;1027732;28;19945;-70
2022/05/30 02:27:23;;;;;;;;;;;;;;;3.66;100.00;95226.19;1027562;28;19925;-71
2022/05/30 02:27:53;;;;;;;;;;;;;;;3.67;100.00;95225.16;1035734;28;20430;-70
2022/05/30 02:28:24;;;;;;;;;;;;;;;3.67;100.00;95212.19;1035629;28;19924;-71
2022/05/30 02:28:54;;;;;;;;;;;;;;;3.66;100.00;95221.00;1039793;28;20012;-71
2022/05/30 02:29:24;;;;;;;;;;;;;;;3.64;100.00;95215.25;1035452;28;20426;-70
2022/05/30 02:29:55;;;;;;;;;;;;;;;3.67;100.00;95222.56;1034783;28;19913;-69
2022/05/30 02:30:25;;;;;;;;;;;;;;;3.70;100.00;95225.47;1039319;28;19917;-70
2022/05/30 02:30:57;;;;;;;;;;;;;;;3.69;100.00;95223.09;1039654;28;20383;-69
2022/05/30 02:31:28;;;;;;;;;;;;;;;3.70;100.00;95227.28;1039700;28;19921;-71
2022/05/30 02:31:58;;;;;;;;;;;;;;;3.69;100.00;95225.69;1039790;28;19917;-70
2022/05/30 02:32:29;;;;;;;;;;;;;;;3.71;100.00;95221.06;1039794;28;20362;-69
2022/05/30 02:36:38;;;;;;;;;;;;;;;3.67;100.00;95225.16;1039745;28;19921;-70
2022/05/30 02:37:04;;;;;;;;;;;;;;;3.70;100.00;95222.09;1039676;28;19925;-71
2022/05/30 02:37:34;;;;;;;;;;;;;;;3.69;100.00;95215.31;1039588;28;20433;-71
2022/05/30 02:38:07;;;;;;;;;;;;;;;3.61;100.00;95218.31;1035662;28;20386;-70
2022/05/30 02:38:37;;;;;;;;;;;;;;;3.61;100.00;95216.50;1035662;28;19918;-70
2022/05/30 02:39:14;;;;;;;;;;;;;;;3.59;100.00;95215.94;1031607;28;20475;-70
2022/05/30 02:39:44;;;;;;;;;;;;;;;3.54;100.00;95214.03;1031778;28;20446;-71
2022/05/30 02:40:15;;;;;;;;;;;;;;;3.53;100.00;95206.50;1031466;28;19917;-70
2022/05/30 02:40:48;;;;;;;;;;;;;;;3.47;100.00;95215.19;1031600;28;19914;-69
2022/05/30 02:41:19;;;;;;;;;;;;;;;3.43;100.00;95207.09;1030195;28;19922;-69
2022/05/30 02:41:49;;;;;;;;;;;;;;;3.44;100.00;95207.88;1032069;28;20719;-69
2022/05/30 02:42:19;;;;;;;;;;;;;;;3.43;100.00;95206.31;1036212;28;20004;-69
2022/05/30 02:42:50;;;;;;;;;;;;;;;3.44;100.00;95208.66;1039746;28;19917;-70
2022/05/30 02:43:21;;;;;;;;;;;;;;;3.44;100.00;95205.28;1040053;28;19917;-72
2022/05/30 02:43:51;;;;;;;;;;;;;;;3.43;100.00;95211.50;1040633;28;19917;-70
2022/05/30 02:44:22;;;;;;;;;;;;;;;3.38;100.00;95201.78;1040289;28;19948;-69
2022/05/30 02:44:52;;;;;;;;;;;;;;;3.35;100.00;95204.84;1043724;28;19955;-69
2022/05/30 02:45:22;;;;;;;;;;;;;;;3.36;100.00;95201.25;1043976;28;19917;-71
2022/05/30 02:45:53;;;;;;;;;;;;;;;3.31;100.00;95198.53;1039594;28;19921;-69
2022/05/30 02:46:23;;;;;;;;;;;;;;;3.33;100.00;95203.50;1039731;28;19936;-69
2022/05/30 02:46:59;;;;;;;;;;;;;;;3.32;100.00;95202.72;1038385;28;20306;-70
2022/05/30 02:47:30;;;;;;;;;;;;;;;3.31;100.00;95199.31;1035832;28;19963;-69
2022/05/30 02:48:00;;;;;;;;;;;;;;;3.33;100.00;95199.13;1031965;28;20358;-69
2022/05/30 02:48:30;;;;;;;;;;;;;;;3.35;100.00;95199.66;1031678;28;19910;-71
2022/05/30 02:49:01;;;;;;;;;;;;;;;3.34;100.00;95203.28;1032086;28;19933;-70
2022/05/30 02:49:31;;;;;;;;;;;;;;;3.35;100.00;95197.06;1035490;28;20311;-68
2022/05/30 02:50:01;;;;;;;;;;;;;;;3.34;100.00;95198.09;1039192;28;19916;-68
2022/05/30 02:50:31;;;;;;;;;;;;;;;3.36;100.00;95198.66;1035586;28;19908;-70
2022/05/30 02:51:02;;;;;;;;;;;;;;;3.32;100.00;95197.53;1039852;28;19952;-68
2022/05/30 02:51:32;;;;;;;;;;;;;;;3.32;100.00;95202.72;1032241;28;20379;-69
2022/05/30 02:52:03;;;;;;;;;;;;;;;3.31;100.00;95201.13;1035618;28;19909;-69
2022/05/30 02:52:33;;;;;;;;;;;;;;;3.32;100.00;95200.13;1035583;28;19986;-70
2022/05/30 02:53:03;;;;;;;;;;;;;;;3.32;100.00;95200.13;1034201;28;19913;-69